createdAt,value
2018-12-29T00:01:07.525Z,5.28
2018-12-29T00:03:37.081Z,5.31
2018-12-29T00:06:06.442Z,5.33
2018-12-29T00:08:36.222Z,5.35
2018-12-29T00:11:05.527Z,5.38
2018-12-29T00:13:35.178Z,5.39
2018-12-29T00:18:39.147Z,5.41
2018-12-29T00:21:08.645Z,5.45
2018-12-29T00:23:37.953Z,5.49
2018-12-29T00:26:07.431Z,5.54
2018-12-29T00:28:36.749Z,5.57
2018-12-29T00:31:06.448Z,5.59
2018-12-29T00:33:35.788Z,5.61
2018-12-29T00:36:07.253Z,5.63
2018-12-29T00:38:55.645Z,5.10
2018-12-29T00:41:24.976Z,5.69
2018-12-29T00:43:54.304Z,5.72
2018-12-29T00:46:23.609Z,5.41
2018-12-29T00:48:53.409Z,5.76
2018-12-29T00:51:22.737Z,5.77
2018-12-29T00:53:52.443Z,5.79
2018-12-29T00:56:21.796Z,5.81
2018-12-29T01:01:40.019Z,5.84
2018-12-29T01:04:09.343Z,5.88
2018-12-29T01:06:38.774Z,5.91
2018-12-29T01:09:08.228Z,5.46
2018-12-29T01:11:37.667Z,5.95
2018-12-29T01:14:06.979Z,6.00
2018-12-29T01:16:36.425Z,6.04
2018-12-29T01:19:05.750Z,5.82
2018-12-29T01:21:35.370Z,6.15
2018-12-29T01:24:04.707Z,6.17
2018-12-29T01:26:34.306Z,6.20
2018-12-29T01:29:03.592Z,5.78
2018-12-29T01:31:33.386Z,6.23
2018-12-29T01:34:02.720Z,6.24
2018-12-29T01:36:32.351Z,6.27
2018-12-29T01:39:02.036Z,5.87
2018-12-29T01:41:31.550Z,6.28
2018-12-29T01:44:00.856Z,6.30
2018-12-29T01:46:30.597Z,6.32
2018-12-29T01:48:59.903Z,6.33
2018-12-29T01:51:29.322Z,6.31
2018-12-29T01:54:17.567Z,6.34
2018-12-29T01:56:46.901Z,6.34
2018-12-29T01:59:16.539Z,6.36
2018-12-29T02:01:46.379Z,6.38
2018-12-29T02:04:15.894Z,6.40
2018-12-29T02:06:45.216Z,5.86
2018-12-29T02:09:14.998Z,6.41
2018-12-29T02:11:44.312Z,6.42
2018-12-29T02:14:13.764Z,6.43
2018-12-29T02:16:43.106Z,6.43
2018-12-29T02:19:12.423Z,6.44
2018-12-29T02:21:41.749Z,6.44
2018-12-29T02:24:11.406Z,6.42
2018-12-29T02:26:40.745Z,6.41
2018-12-29T02:29:10.402Z,6.41
2018-12-29T02:31:39.768Z,6.41
2018-12-29T02:34:09.185Z,6.40
2018-12-29T02:36:38.523Z,6.41
2018-12-29T02:39:08.759Z,6.41
2018-12-29T02:41:38.018Z,6.41
2018-12-29T02:44:07.465Z,6.41
2018-12-29T02:46:36.824Z,6.42
2018-12-29T02:49:06.503Z,6.43
2018-12-29T02:51:35.810Z,6.43
2018-12-29T02:54:05.240Z,6.45
2018-12-29T02:56:34.553Z,6.43
2018-12-29T02:59:04.290Z,6.46
2018-12-29T03:01:33.615Z,6.45
2018-12-29T03:04:03.218Z,6.48
2018-12-29T03:06:32.607Z,6.48
2018-12-29T03:09:02.202Z,6.51
2018-12-29T03:11:31.506Z,6.52
2018-12-29T03:14:00.834Z,6.53
2018-12-29T03:16:30.227Z,6.52
2018-12-29T03:19:03.678Z,6.54
2018-12-29T03:21:36.726Z,6.52
2018-12-29T03:24:06.042Z,6.54
2018-12-29T03:26:36.321Z,6.54
2018-12-29T03:29:25.636Z,6.54
2018-12-29T03:31:59.194Z,6.54
2018-12-29T03:34:29.654Z,6.54
2018-12-29T03:36:59.116Z,6.46
2018-12-29T03:39:28.472Z,6.55
2018-12-29T03:44:34.187Z,6.55
2018-12-29T03:47:23.169Z,6.53
2018-12-29T03:52:42.731Z,6.54
2018-12-29T03:55:12.440Z,6.58
2018-12-29T03:57:41.784Z,6.32
2018-12-29T04:00:11.382Z,6.58
2018-12-29T04:02:40.698Z,6.27
2018-12-29T04:05:10.305Z,6.57
2018-12-29T04:07:39.708Z,6.30
2018-12-29T04:10:13.725Z,6.56
2018-12-29T04:12:45.990Z,6.30
2018-12-29T04:15:15.309Z,6.54
2018-12-29T04:17:45.014Z,6.51
2018-12-29T04:20:14.390Z,6.50
2018-12-29T04:22:44.059Z,6.51
2018-12-29T04:25:13.383Z,6.52
2018-12-29T04:27:43.052Z,6.49
2018-12-29T04:30:12.412Z,6.50
2018-12-29T04:32:41.836Z,6.49
2018-12-29T04:35:11.168Z,5.96
2018-12-29T04:37:40.676Z,6.46
2018-12-29T04:40:10.008Z,6.42
2018-12-29T04:45:14.405Z,6.43
2018-12-29T04:47:43.733Z,6.17
2018-12-29T04:50:13.399Z,6.16
2018-12-29T04:52:42.740Z,6.43
2018-12-29T04:55:12.947Z,6.43
2018-12-29T04:57:42.289Z,6.43
2018-12-29T05:00:11.964Z,6.43
2018-12-29T05:02:41.402Z,6.45
2018-12-29T05:05:10.888Z,6.45
2018-12-29T05:07:40.220Z,6.47
2018-12-29T05:10:09.917Z,6.47
2018-12-29T05:12:39.264Z,6.47
2018-12-29T05:15:08.685Z,6.49
2018-12-29T05:17:38.022Z,6.49
2018-12-29T05:20:07.500Z,6.49
2018-12-29T05:22:36.904Z,6.50
2018-12-29T05:25:25.288Z,6.50
2018-12-29T05:27:54.941Z,6.47
2018-12-29T05:30:24.254Z,6.47
2018-12-29T05:32:53.916Z,6.48
2018-12-29T05:35:23.293Z,6.46
2018-12-29T05:37:52.824Z,6.47
2018-12-29T05:40:22.189Z,6.47
2018-12-29T05:42:51.738Z,6.45
2018-12-29T05:45:21.056Z,6.07
2018-12-29T05:47:50.637Z,6.44
2018-12-29T05:50:19.958Z,6.45
2018-12-29T05:52:49.462Z,6.44
2018-12-29T05:55:18.836Z,5.94
2018-12-29T05:57:48.476Z,6.43
2018-12-29T06:00:17.816Z,6.44
2018-12-29T06:02:47.288Z,6.43
2018-12-29T06:05:16.624Z,6.43
2018-12-29T06:07:46.200Z,6.42
2018-12-29T06:10:15.527Z,6.15
2018-12-29T06:12:45.403Z,6.41
2018-12-29T06:15:14.708Z,6.40
2018-12-29T06:17:44.348Z,6.38
2018-12-29T06:20:13.676Z,6.11
2018-12-29T06:22:43.421Z,6.41
2018-12-29T06:25:12.761Z,6.38
2018-12-29T06:27:42.401Z,6.39
2018-12-29T06:30:30.787Z,6.31
2018-12-29T06:33:00.126Z,6.39
2018-12-29T06:35:29.449Z,6.40
2018-12-29T06:38:17.702Z,6.40
2018-12-29T06:40:47.021Z,6.40
2018-12-29T06:43:16.438Z,6.39
2018-12-29T06:45:45.776Z,5.86
2018-12-29T06:48:15.244Z,6.37
2018-12-29T06:50:44.549Z,6.08
2018-12-29T06:53:14.568Z,6.37
2018-12-29T06:55:43.891Z,6.35
2018-12-29T06:58:13.284Z,6.33
2018-12-29T07:00:42.653Z,6.08
2018-12-29T07:03:12.480Z,6.35
2018-12-29T07:05:41.808Z,6.32
2018-12-29T07:08:11.532Z,6.33
2018-12-29T07:13:29.153Z,6.31
2018-12-29T07:15:58.826Z,6.31
2018-12-29T07:18:28.139Z,6.31
2018-12-29T07:20:57.901Z,6.32
2018-12-29T07:23:27.218Z,6.31
2018-12-29T07:25:57.154Z,6.32
2018-12-29T07:28:26.658Z,6.29
2018-12-29T07:30:56.630Z,6.32
2018-12-29T07:33:26.036Z,5.85
2018-12-29T07:35:55.656Z,6.30
2018-12-29T07:38:24.974Z,5.74
2018-12-29T07:41:13.349Z,6.31
2018-12-29T07:43:43.116Z,6.31
2018-12-29T07:46:31.607Z,6.30
2018-12-29T07:49:00.969Z,6.30
2018-12-29T07:51:30.409Z,6.27
2018-12-29T07:53:59.850Z,6.26
2018-12-29T07:56:29.266Z,6.27
2018-12-29T07:59:17.750Z,6.26
2018-12-29T08:01:47.068Z,6.25
2018-12-29T08:04:35.340Z,6.25
2018-12-29T08:07:04.817Z,6.25
2018-12-29T08:09:34.146Z,6.25
2018-12-29T08:12:03.581Z,6.22
2018-12-29T08:14:32.992Z,6.22
2018-12-29T08:17:02.428Z,6.23
2018-12-29T08:19:31.767Z,6.24
2018-12-29T08:22:01.151Z,6.26
2018-12-29T08:24:49.599Z,6.26
2018-12-29T08:27:18.964Z,6.25
2018-12-29T08:29:48.395Z,6.27
2018-12-29T08:32:36.795Z,6.26
2018-12-29T08:35:06.542Z,6.27
2018-12-29T08:37:35.857Z,5.70
2018-12-29T08:40:05.319Z,6.28
2018-12-29T08:42:34.986Z,6.30
2018-12-29T08:45:04.598Z,6.32
2018-12-29T08:47:33.939Z,6.10
2018-12-29T08:50:03.355Z,6.39
2018-12-29T08:52:32.667Z,6.14
2018-12-29T08:55:02.570Z,6.44
2018-12-29T08:57:31.949Z,6.35
2018-12-29T09:00:01.381Z,6.47
2018-12-29T09:02:30.747Z,6.51
2018-12-29T09:05:00.471Z,6.52
2018-12-29T09:07:29.807Z,6.42
2018-12-29T09:09:59.407Z,6.56
2018-12-29T09:12:28.730Z,6.30
2018-12-29T09:14:58.385Z,6.59
2018-12-29T09:17:27.723Z,6.60
2018-12-29T09:19:57.371Z,6.61
2018-12-29T09:22:26.713Z,6.62
2018-12-29T09:24:56.304Z,6.63
2018-12-29T09:27:25.612Z,6.11
2018-12-29T09:29:55.169Z,6.64
2018-12-29T09:32:24.531Z,6.66
2018-12-29T09:34:54.059Z,6.69
2018-12-29T09:37:23.376Z,6.67
2018-12-29T09:39:52.945Z,6.71
2018-12-29T09:42:22.263Z,6.74
2018-12-29T09:44:51.811Z,6.76
2018-12-29T09:49:56.578Z,6.80
2018-12-29T09:55:01.404Z,6.76
2018-12-29T09:57:30.746Z,6.77
2018-12-29T10:00:00.649Z,6.79
2018-12-29T10:02:29.979Z,6.79
2018-12-29T10:04:59.552Z,6.78
2018-12-29T10:07:28.886Z,6.54
2018-12-29T10:09:58.477Z,6.78
2018-12-29T10:12:27.840Z,6.83
2018-12-29T10:14:57.380Z,6.85
2018-12-29T10:17:27.861Z,6.86
2018-12-29T10:19:58.087Z,6.88
2018-12-29T10:22:27.432Z,6.90
2018-12-29T10:24:56.914Z,6.92
2018-12-29T10:27:26.306Z,6.95
2018-12-29T10:29:55.713Z,6.94
2018-12-29T10:32:25.030Z,6.95
2018-12-29T10:34:54.684Z,6.93
2018-12-29T10:37:24.007Z,6.94
2018-12-29T10:39:53.493Z,6.96
2018-12-29T10:42:22.855Z,6.68
2018-12-29T10:44:52.625Z,6.96
2018-12-29T10:47:21.934Z,6.96
2018-12-29T10:49:51.363Z,6.97
2018-12-29T10:52:20.683Z,6.67
2018-12-29T10:54:50.283Z,6.95
2018-12-29T10:57:19.665Z,6.41
2018-12-29T10:59:49.253Z,6.95
2018-12-29T11:02:18.718Z,6.96
2018-12-29T11:07:23.386Z,6.68
2018-12-29T11:09:52.732Z,6.68
2018-12-29T11:12:22.378Z,6.97
2018-12-29T11:14:51.709Z,6.71
2018-12-29T11:17:21.546Z,6.94
2018-12-29T11:20:10.029Z,6.91
2018-12-29T11:22:39.395Z,6.89
2018-12-29T11:25:09.161Z,6.87
2018-12-29T11:27:38.534Z,6.86
2018-12-29T11:30:08.349Z,6.88
2018-12-29T11:32:38.324Z,6.93
2018-12-29T11:35:07.972Z,6.94
2018-12-29T11:37:37.345Z,6.53
2018-12-29T11:42:55.594Z,6.96
2018-12-29T11:45:24.923Z,6.99
2018-12-29T11:47:54.559Z,6.98
2018-12-29T11:50:24.037Z,6.74
2018-12-29T11:52:53.932Z,6.98
2018-12-29T11:55:23.601Z,6.85
2018-12-29T11:57:53.396Z,6.98
2018-12-29T12:00:22.781Z,6.95
2018-12-29T12:02:52.342Z,6.95
2018-12-29T12:05:21.865Z,6.96
2018-12-29T12:07:51.553Z,6.97
2018-12-29T12:10:21.205Z,6.97
2018-12-29T12:12:50.648Z,6.91
2018-12-29T12:15:20.006Z,6.95
2018-12-29T12:17:49.412Z,6.93
2018-12-29T12:20:18.767Z,6.94
2018-12-29T12:22:48.668Z,6.97
2018-12-29T12:25:17.971Z,6.82
2018-12-29T12:27:47.690Z,6.98
2018-12-29T12:30:17.053Z,6.99
2018-12-29T12:32:46.590Z,7.00
2018-12-29T12:35:16.033Z,6.90
2018-12-29T12:37:45.572Z,7.01
2018-12-29T12:40:33.791Z,6.80
2018-12-29T12:43:03.144Z,6.90
2018-12-29T12:45:32.634Z,6.92
2018-12-29T12:48:05.216Z,6.38
2018-12-29T12:50:33.899Z,6.95
2018-12-29T12:53:03.221Z,6.95
2018-12-29T12:55:32.967Z,6.68
2018-12-29T12:58:21.524Z,6.97
2018-12-29T13:00:52.839Z,6.99
2018-12-29T13:03:22.528Z,6.99
2018-12-29T13:05:52.437Z,6.98
2018-12-29T13:08:21.813Z,6.95
2018-12-29T13:10:51.476Z,6.85
2018-12-29T13:13:20.818Z,6.87
2018-12-29T13:15:50.407Z,6.84
2018-12-29T13:18:19.796Z,6.85
2018-12-29T13:20:49.420Z,6.86
2018-12-29T13:23:18.762Z,6.85
2018-12-29T13:25:48.215Z,6.85
2018-12-29T13:28:17.603Z,6.81
2018-12-29T13:31:06.024Z,6.75
2018-12-29T13:33:35.562Z,6.72
2018-12-29T13:36:25.593Z,6.71
2018-12-29T13:38:54.922Z,6.67
2018-12-29T13:41:24.301Z,6.65
2018-12-29T13:51:38.461Z,6.56
2018-12-29T13:56:42.237Z,6.47
2018-12-29T13:59:11.994Z,6.39
2018-12-29T14:01:41.333Z,6.43
2018-12-29T14:04:11.002Z,6.42
2018-12-29T14:06:40.340Z,6.16
2018-12-29T14:09:10.069Z,6.43
2018-12-29T14:11:39.406Z,6.39
2018-12-29T14:14:08.821Z,6.41
2018-12-29T14:16:38.410Z,6.35
2018-12-29T14:19:08.124Z,6.35
2018-12-29T14:21:38.353Z,6.36
2018-12-29T14:24:07.678Z,6.37
2018-12-29T14:26:37.017Z,6.37
2018-12-29T14:29:06.424Z,6.37
2018-12-29T14:31:35.811Z,6.12
2018-12-29T14:34:05.356Z,6.35
2018-12-29T14:36:34.727Z,6.36
2018-12-29T14:39:24.766Z,6.31
2018-12-29T14:41:54.144Z,6.25
2018-12-29T14:44:23.533Z,6.33
2018-12-29T14:47:11.922Z,6.30
2018-12-29T14:49:41.448Z,6.28
2018-12-29T14:52:10.778Z,6.14
2018-12-29T14:54:40.558Z,5.92
2018-12-29T14:57:10.139Z,6.23
2018-12-29T14:59:58.553Z,6.26
2018-12-29T15:02:28.064Z,6.23
2018-12-29T15:05:16.353Z,5.95
2018-12-29T15:07:45.699Z,6.27
2018-12-29T15:10:15.288Z,6.26
2018-12-29T15:12:44.614Z,6.27
2018-12-29T15:15:14.517Z,6.27
2018-12-29T15:17:43.830Z,5.98
2018-12-29T15:20:13.528Z,6.25
2018-12-29T15:22:42.833Z,5.97
2018-12-29T15:25:12.215Z,6.20
2018-12-29T15:27:43.308Z,6.16
2018-12-29T15:30:12.623Z,6.18
2018-12-29T15:32:41.984Z,6.18
2018-12-29T15:35:11.689Z,6.17
2018-12-29T15:37:41.016Z,5.98
2018-12-29T15:40:10.349Z,6.15
2018-12-29T15:42:44.863Z,6.17
2018-12-29T15:47:59.164Z,6.15
2018-12-29T15:50:28.643Z,6.13
2018-12-29T15:52:58.136Z,6.12
2018-12-29T15:55:27.596Z,6.12
2018-12-29T15:58:15.945Z,6.15
2018-12-29T16:00:45.261Z,6.17
2018-12-29T16:03:14.997Z,6.15
2018-12-29T16:05:44.320Z,6.16
2018-12-29T16:08:13.789Z,6.16
2018-12-29T16:10:43.286Z,6.13
2018-12-29T16:13:12.659Z,6.12
2018-12-29T16:15:42.148Z,6.10
2018-12-29T16:18:12.338Z,6.10
2018-12-29T16:20:41.728Z,6.07
2018-12-29T16:23:11.062Z,6.06
2018-12-29T16:25:40.716Z,6.06
2018-12-29T16:28:10.093Z,6.08
2018-12-29T16:30:39.445Z,6.08
2018-12-29T16:33:08.932Z,6.06
2018-12-29T16:35:38.246Z,6.03
2018-12-29T16:38:09.319Z,6.01
2018-12-29T16:40:38.858Z,5.98
2018-12-29T16:43:27.158Z,5.98
2018-12-29T16:45:56.561Z,5.98
2018-12-29T16:48:25.923Z,5.96
2018-12-29T16:51:16.027Z,5.97
2018-12-29T16:53:47.350Z,5.95
2018-12-29T16:59:05.853Z,5.91
2018-12-29T17:01:35.625Z,5.92
2018-12-29T17:04:04.963Z,5.78
2018-12-29T17:06:34.929Z,5.91
2018-12-29T17:12:13.616Z,5.90
2018-12-29T17:15:02.282Z,5.90
2018-12-29T17:17:31.657Z,5.89
2018-12-29T17:20:01.210Z,5.88
2018-12-29T17:22:30.797Z,5.87
2018-12-29T17:25:00.664Z,5.87
2018-12-29T17:27:30.004Z,5.87
2018-12-29T17:30:00.010Z,5.88
2018-12-29T17:32:29.345Z,5.87
2018-12-29T17:34:58.982Z,5.82
2018-12-29T17:37:28.292Z,5.21
2018-12-29T17:39:57.754Z,5.75
2018-12-29T17:42:27.297Z,5.75
2018-12-29T17:44:56.745Z,5.76
2018-12-29T17:47:26.098Z,5.73
2018-12-29T17:49:55.659Z,5.73
2018-12-29T17:52:25.009Z,5.72
2018-12-29T17:54:56.289Z,5.72
2018-12-29T17:57:25.665Z,5.74
2018-12-29T18:02:43.657Z,5.73
2018-12-29T18:05:32.010Z,5.46
2018-12-29T18:08:01.355Z,5.73
2018-12-29T18:10:31.224Z,5.72
2018-12-29T18:13:00.571Z,5.72
2018-12-29T18:15:30.104Z,5.73
2018-12-29T18:17:59.408Z,5.74
2018-12-29T18:20:28.928Z,5.74
2018-12-29T18:22:58.259Z,5.75
2018-12-29T18:25:27.886Z,5.71
2018-12-29T18:27:57.203Z,5.71
2018-12-29T18:30:26.952Z,5.71
2018-12-29T18:32:56.271Z,5.45
2018-12-29T18:35:25.809Z,5.73
2018-12-29T18:37:55.132Z,5.74
2018-12-29T18:40:24.703Z,5.74
2018-12-29T18:42:54.030Z,5.73
2018-12-29T18:45:23.701Z,5.76
2018-12-29T18:47:53.025Z,5.79
2018-12-29T18:50:22.488Z,5.78
2018-12-29T18:52:51.909Z,5.50
2018-12-29T18:55:21.516Z,5.79
2018-12-29T18:57:51.208Z,5.50
2018-12-29T19:00:20.865Z,5.77
2018-12-29T19:02:50.203Z,5.79
2018-12-29T19:05:19.935Z,5.78
2018-12-29T19:08:08.597Z,5.78
2018-12-29T19:10:37.915Z,5.78
2018-12-29T19:13:07.523Z,5.77
2018-12-29T19:15:37.284Z,5.77
2018-12-29T19:18:07.145Z,5.77
2018-12-29T19:20:38.429Z,5.48
2018-12-29T19:23:08.235Z,5.77
2018-12-29T19:25:37.586Z,5.77
2018-12-29T19:28:07.202Z,5.75
2018-12-29T19:30:38.408Z,5.76
2018-12-29T19:33:08.024Z,5.77
2018-12-29T19:35:37.438Z,5.74
2018-12-29T19:38:06.815Z,5.72
2018-12-29T19:40:36.522Z,5.72
2018-12-29T19:43:05.856Z,5.71
2018-12-29T19:45:35.762Z,5.70
2018-12-29T19:48:25.125Z,5.69
2018-12-29T19:50:55.425Z,5.68
2018-12-29T19:53:26.641Z,5.64
2018-12-29T19:55:56.215Z,5.63
2018-12-29T20:01:00.818Z,5.63
2018-12-29T20:03:30.155Z,5.61
2018-12-29T20:05:59.819Z,5.59
2018-12-29T20:08:30.875Z,5.56
2018-12-29T20:11:00.326Z,5.56
2018-12-29T20:13:29.753Z,5.56
2018-12-29T20:15:59.251Z,5.55
2018-12-29T20:18:29.313Z,5.52
2018-12-29T20:20:59.059Z,5.53
2018-12-29T20:23:28.481Z,5.52
2018-12-29T20:25:58.000Z,5.52
2018-12-29T20:28:27.459Z,5.53
2018-12-29T20:30:56.784Z,5.54
2018-12-29T20:33:26.514Z,5.51
2018-12-29T20:36:15.038Z,5.52
2018-12-29T20:38:44.830Z,5.51
2018-12-29T20:41:14.231Z,5.52
2018-12-29T20:43:43.803Z,5.51
2018-12-29T20:46:13.236Z,5.50
2018-12-29T20:48:42.616Z,5.50
2018-12-29T20:51:12.000Z,5.51
2018-12-29T20:54:00.473Z,5.51
2018-12-29T20:56:30.143Z,5.49
2018-12-29T20:59:00.468Z,5.39
2018-12-29T21:01:29.984Z,5.55
2018-12-29T21:03:59.391Z,5.55
2018-12-29T21:06:28.770Z,5.54
2018-12-29T21:08:58.151Z,5.55
2018-12-29T21:11:27.695Z,5.54
2018-12-29T21:13:57.094Z,5.56
2018-12-29T21:16:26.551Z,5.55
2018-12-29T21:18:55.920Z,5.56
2018-12-29T21:21:25.294Z,5.55
2018-12-29T21:23:54.746Z,5.39
2018-12-29T21:26:24.143Z,5.55
2018-12-29T21:28:53.539Z,5.56
2018-12-29T21:31:23.293Z,5.55
2018-12-29T21:33:52.658Z,5.57
2018-12-29T21:36:22.072Z,5.56
2018-12-29T21:38:51.451Z,5.29
2018-12-29T21:41:39.868Z,5.54
2018-12-29T21:44:09.875Z,5.53
2018-12-29T21:46:39.221Z,5.53
2018-12-29T21:49:08.595Z,5.53
2018-12-29T21:51:38.051Z,5.25
2018-12-29T21:54:07.879Z,5.53
2018-12-29T21:56:38.303Z,5.12
2018-12-29T21:59:07.723Z,5.52
2018-12-29T22:01:56.101Z,5.52
2018-12-29T22:04:25.472Z,5.51
2018-12-29T22:06:55.077Z,5.51
2018-12-29T22:09:24.466Z,5.55
2018-12-29T22:11:54.240Z,5.56
2018-12-29T22:14:23.608Z,5.56
2018-12-29T22:16:53.274Z,5.58
2018-12-29T22:19:22.622Z,5.56
2018-12-29T22:21:54.420Z,5.54
2018-12-29T22:24:23.807Z,5.54
2018-12-29T22:27:12.284Z,5.56
2018-12-29T22:29:41.672Z,5.58
2018-12-29T22:32:11.068Z,5.56
2018-12-29T22:34:40.510Z,5.54
2018-12-29T22:37:09.896Z,5.52
2018-12-29T22:39:39.285Z,5.53
2018-12-29T22:42:08.811Z,5.54
2018-12-29T22:44:38.143Z,5.55
2018-12-29T22:47:07.683Z,5.57
2018-12-29T22:49:37.142Z,5.58
2018-12-29T22:52:06.717Z,5.60
2018-12-29T22:54:55.093Z,5.59
2018-12-29T22:57:24.589Z,5.60
2018-12-29T22:59:54.320Z,5.61
2018-12-29T23:04:59.391Z,5.58
2018-12-29T23:07:28.867Z,5.61
2018-12-29T23:09:58.254Z,5.63
2018-12-29T23:12:27.579Z,5.65
2018-12-29T23:14:57.907Z,5.65
2018-12-29T23:17:46.320Z,5.66
2018-12-29T23:20:15.671Z,5.66
2018-12-29T23:22:44.995Z,5.66
2018-12-29T23:25:14.390Z,5.44
2018-12-29T23:27:44.090Z,5.63
2018-12-29T23:30:13.394Z,5.65
2018-12-29T23:32:43.228Z,5.62
2018-12-29T23:35:12.552Z,5.63
2018-12-29T23:37:41.971Z,5.62
2018-12-29T23:40:11.389Z,5.63
2018-12-29T23:42:41.098Z,5.63
2018-12-29T23:45:10.467Z,5.35
2018-12-29T23:50:28.548Z,5.56
2018-12-29T23:52:59.787Z,5.42
2018-12-29T23:55:29.470Z,5.55
2018-12-29T23:57:59.081Z,5.54
